Almena, Wisconsin
Current Conditions -  °F | °C
As of 3:35 PM on Wednesday 17 Dec 2014 (Local Time) from KUBE Reporting Station
Overcast Overcast  
Wind Chill: -13°   Ceiling: 2300
Heat Index: -8°   Visibility: 10mi
Dew Point: -12°   Wind: 6mph
Humidity: 73%   Direction: 360°N
Pressure: 30.26"   Gusts: NA
Location:  45.42°N, 92.03°W
Report Text: KUBE 172135Z AUTO 36005KT 10SM OVC023 M08/M12 A3026 RMK AO2
Loading
Personal Weather Stations






























Interactive Weather Map New forecast layout! Learn more

10-Day Weather Forecast

Advertisements
Track Severe Weather on mobile